Marion, TX (78124)

8:52 PM CST on February 07, 2016 (GMT -0600)
APRSWXNET | | Change Station
CLOSE
Current Station
Personal Weather Station
Location: Marion, TX
Elevation: 669 ft
Nearby Weather Stations

Elev 669 ft 29.58 °N, 98.14 °W | Updated 24 minutes ago

Mostly Cloudy
Mostly Cloudy
55 °F
Feels Like 55 °F
N
3
Wind Variable Wind from SSW
Gusts 4.0 mph

Today
High -- | Low -- °F
--% Chance of Precip.
Yesterday
High -- | Low -- °F
Precip. -- in
Pressure 30.15 in
Visibility 10.0 miles
Clouds Clear
Dew Point 34 °F
Humidity 45%
Rainfall in
Snow Depth Not available.
7:18 AM 6:15 PM
Waning Crescent, 0% visible
METAR KRND 080158Z AUTO 21005KT 10SM CLR 14/M02 A3014 RMK AO2 SLP208 T01391018
Pressure 30.15 in
Visibility 10.0 miles
Clouds Clear
Dew Point 34 °F
Humidity 45%
Rainfall in
Snow Depth Not available.
7:18 AM 6:15 PM
Waning Crescent, 0% visible
METAR KRND 080158Z AUTO 21005KT 10SM CLR 14/M02 A3014 RMK AO2 SLP208 T01391018

10-Day Weather Forecast

Almanac

Astronomy

Feb. 07, 2016 Rise Set
Actual Time
Civil Twilight
Nautical Twilight
Astronomical Twilight
Moon
Length of Visible Light
Length of Day
Tomorrow will be .
, % of the Moon is Illuminated

Today's Extremes

State Highs State Lows

Community

WunderPhotos

Upload Photos

1,891,373 photos uploaded!

WunderBlog® & News

Nearby

Air Quality

  Air Quality AQ Index Pollutant
Not available.

Snow Depth

Station Depth Elevation

Earthquake Activity

City Distance Mag. Time & Date
Minimum magnitude displayed is 2.5.

Coastal Water Temperatures

Place Temperature

Stations

Nearby Weather Stations

Station Location Temp. Windchill Dew Point Humidity Wind Precip. Elev Updated Type
                   

Watches & Warnings

There are currently no watches in effect.